• Join FlightAware (Why Join?)
  • Login
  • US Flag 
05:15AM EDT


 

Airport Tracker/Info


-or-


 

Live Flight TrackerFlight Track Log ✈ SKW6492 ✈ 13-Oct-2013 ✈ KDEN - KCOD

Flight Track Log - Related Links

Times and Time Zones

All times are in EDT time to prevent confusion due to time zone crossing. See the SKW6492 flight status page for this flight to view local times or setup timezone preferences in your user account.

Time Position Orientation Groundspeed Altitude Reporting Facility
EDT Latitude Longitude Course Direction KTS MPH feet Rate Location/Type
10:14PM 39.8833 -104.6000 348° North 171 197 6,800  Level Denver TRACON
10:15PM 39.9167 -104.5333 57° Northeast 266 306 8,800 2,100 Climbing Denver TRACON
10:16PM 40.1112 -104.8871 347° North  Level Estimated
10:16PM 40.0000 -104.5167 North 292 336 11,000  Level Denver TRACON
10:17PM 40.1943 -104.9588 346° North  Level Estimated
10:17PM 40.0833 -104.5000 North 323 372 13,000  Level Denver TRACON
10:18PM 40.2922 -104.9360 10° North  Level FlightAware Approximate
10:18PM 40.1769 -104.5331 345° North 331 381 15,200  Level Denver Center
10:19PM 40.3746 -105.0093 348° North  Level Estimated
10:19PM 40.2617 -104.5775 338° Northwest 332 382 16,700  Level Denver Center
10:20PM 40.3617 -104.6283 339° North 357 411 18,100 1,320 Climbing Denver Center
10:21PM 40.4583 -104.6783 339° North 371 427 19,500 1,260 Climbing Denver Center
10:22PM 40.5575 -104.7300 338° Northwest 386 444 20,800 1,380 Climbing Denver Center
10:23PM 40.6639 -104.7883 337° Northwest 383 441 22,400 1,260 Climbing Denver Center
10:24PM 40.7522 -104.8308 340° North 384 442 23,500 1,020 Climbing Denver Center
10:25PM 40.8753 -104.8917 340° North 395 455 24,600 1,020 Climbing Denver Center
10:26PM 40.9819 -104.9442 340° North 407 468 25,700 1,020 Climbing Denver Center
10:27PM 41.0953 -105.0003 340° North 416 479 26,700 840 Climbing Denver Center
10:28PM 41.2003 -105.0522 340° North 421 484 27,500 780 Climbing Denver Center
10:29PM 41.3250 -105.1144 339° North 425 489 28,400 780 Climbing Denver Center
10:30PM 41.4333 -105.1683 340° North 432 497 29,200 660 Climbing Denver Center
10:31PM 41.5414 -105.2225 339° North 433 498 29,800 660 Climbing Denver Center
10:32PM 41.6469 -105.3250 324° Northwest 421 484 30,600 720 Climbing Denver Center
10:33PM 41.7328 -105.4167 321° Northwest 416 479 31,300 660 Climbing Denver Center
10:34PM 41.8325 -105.5242 321° Northwest 412 474 32,000 300 Climbing Denver Center
10:35PM 41.9189 -105.6183 321° Northwest 417 480 32,000  Level Denver Center
10:36PM 42.0078 -105.7161 321° Northwest 425 489 32,000  Level Denver Center
10:37PM 42.1119 -105.8314 321° Northwest 432 497 32,000  Level Denver Center
10:38PM 42.2028 -105.9300 321° Northwest 436 502 32,000  Level Denver Center
10:39PM 42.3042 -106.0436 320° Northwest 426 490 32,000  Level Denver Center
10:40PM 42.3906 -106.1400 321° Northwest 420 483 32,000  Level Denver Center
10:41PM 42.4778 -106.2372 321° Northwest 422 486 32,000  Level Denver Center
10:42PM 42.5797 -106.3500 321° Northwest 423 487 32,000  Level Denver Center
10:43PM 42.6669 -106.4508 320° Northwest 428 493 32,000 60 Level Denver Center
10:45PM 42.7733 -106.5703 321° Northwest 441 507 32,200 660 Climbing Denver Center
10:46PM 42.8639 -106.6706 321° Northwest 439 505 33,400 840 Climbing Denver Center
10:47PM 42.9622 -106.7833 320° Northwest 420 483 34,000 240 Climbing Denver Center
10:48PM 43.0475 -106.8822 320° Northwest 421 484 34,000  Level Denver Center
10:48PM 43.1161 -106.9614 320° Northwest 425 489 34,000  Level Salt Lake Center
10:49PM 43.2083 -107.0694 320° Northwest 434 499 34,000  Level Salt Lake Center
10:50PM 43.3022 -107.1778 320° Northwest 440 506 34,000  Level Salt Lake Center
10:51PM 43.3942 -107.2833 320° Northwest 434 499 34,000  Level Salt Lake Center
10:52PM 43.4839 -107.3892 319° Northwest 427 491 34,000  Level Salt Lake Center
10:53PM 43.5722 -107.4928 320° Northwest 420 483 34,000  Level Salt Lake Center
10:54PM 43.6644 -107.5981 320° Northwest 427 491 34,000  Level Salt Lake Center
10:55PM 43.7564 -107.7039 320° Northwest 430 495 34,000 -1,200 Level Salt Lake Center
10:56PM 43.8583 -107.8458 315° West 432 497 31,600 -2,880 Descending Salt Lake Center
10:58PM 43.9450 -107.9681 315° West 443 510 28,100 -3,420 Descending Salt Lake Center
10:59PM 44.0303 -108.0850 315° West 435 501 24,600 -3,240 Descending Salt Lake Center
11:00PM 44.1128 -108.2003 315° West 424 488 21,600 -2,580 Descending Salt Lake Center
11:01PM 44.1900 -108.3067 315° West 401 461 19,400 -2,520 Descending Salt Lake Center
11:02PM 44.2633 -108.4069 316° Northwest 380 437 16,500 -2,940 Descending Salt Lake Center
11:03PM 44.3486 -108.4806 328° Northwest 369 425 13,500 -2,880 Descending Salt Lake Center
11:04PM 44.4322 -108.5489 330° Northwest 357 411 10,600 -1,800 Descending Salt Lake Center
11:05PM 44.5069 -108.6111 329° Northwest 337 388 9,900 -780 Descending Salt Lake Center
11:06PM 44.5711 -108.6639 330° Northwest 300 345 9,100 -780 Descending Salt Lake Center
11:07PM 44.6244 -108.7200 323° Northwest 269 310 8,400 -540 Descending Salt Lake Center
11:08PM 44.6617 -108.8000 303° West 237 273 8,100 -180 Descending Salt Lake Center
11:09PM 44.7189 -108.7803 14° North 226 260 8,100 -60 Level Salt Lake Center
11:10PM 44.7650 -108.7222 42° Northeast 222 255 8,000  Descending Salt Lake Center
11:11PM 44.7275 -108.6661 133° Southeast 233 268 8,100  Climbing Salt Lake Center
11:12PM 44.6833 -108.7283 225° Southwest 231 266 8,100 -180 Level Salt Lake Center
11:13PM 44.6508 -108.7914 234° Southwest 218 251 7,800 -300 Descending Salt Lake Center
11:14PM 44.6233 -108.8411 232° Southwest 190 219 7,600 -180 Descending Salt Lake Center
11:15PM 44.5958 -108.8922 233° Southwest 174 200 7,500 -600 Descending Salt Lake Center
11:16PM 44.5675 -108.9400 230° Southwest 166 191 6,500 -720 Descending Salt Lake Center
11:17PM 44.5344 -108.9994 232° Southwest 165 190 6,100 900 Descending Salt Lake Center
11:18PM 44.4989 -109.0608 231° Southwest 181 208 8,400 1,740 Climbing Salt Lake Center
11:19PM 44.4444 -109.0075 145° Southeast 242 278 9,700 540 Climbing Salt Lake Center
11:20PM 44.4083 -108.9125 118° Southeast 269 310 9,600  Descending Salt Lake Center
11:21PM 44.3619 -108.8456 134° Southeast 257 296 9,700 240 Climbing Salt Lake Center
11:22PM 44.3811 -108.7706 70° East 253 291 10,100 120 Climbing Salt Lake Center
11:23PM 44.4408 -108.7350 23° Northeast 240 276 10,000 -360 Descending Salt Lake Center
11:24PM 44.5031 -108.7033 20° North 236 272 9,400 -480 Descending Salt Lake Center
11:25PM 44.5639 -108.6722 20° North 235 270 9,100 -600 Descending Salt Lake Center
11:26PM 44.6153 -108.7161 329° Northwest 225 259 8,300 -600 Descending Salt Lake Center
11:27PM 44.6497 -108.7742 310° West 216 249 8,000 -360 Descending Salt Lake Center
11:28PM 44.6247 -108.8378 241° Southwest 199 229 7,600 -360 Descending Salt Lake Center
11:29PM 44.5931 -108.8972 233° Southwest 175 201 7,300 -600 Descending Salt Lake Center
11:30PM 44.5647 -108.9469 231° Southwest 167 192 6,400 -420 Descending Salt Lake Center
11:32PM 44.5258 -109.0178 232° Southwest 194 223 6,400 1,140 Level Salt Lake Center
11:33PM 44.4797 -109.0683 218° Southwest 241 277 9,300 1,800 Climbing Salt Lake Center
11:34PM 44.4419 -108.9925 125° Southeast 257 296 10,100 1,080 Climbing Salt Lake Center
11:35PM 44.3786 -108.9547 157° South 278 320 11,500 1,620 Climbing Salt Lake Center
11:36PM 44.3361 -109.0442 236° Southwest 286 329 13,500 1,800 Climbing Salt Lake Center
11:37PM 44.3061 -109.1536 249° West 300 345 15,300 1,800 Climbing Salt Lake Center
11:38PM 44.2761 -109.2744 251° West 307 353 17,200 1,500 Climbing Salt Lake Center
11:39PM 44.2481 -109.3825 250° West 315 362 18,400 1,560 Climbing Salt Lake Center
11:40PM 44.2142 -109.5178 251° West 321 369 20,400 1,620 Climbing Salt Lake Center
11:41PM 44.1847 -109.6306 250° West 323 372 21,800 1,380 Climbing Salt Lake Center
11:42PM 44.1497 -109.7664 250° West 331 381 23,300 1,080 Climbing Salt Lake Center
11:43PM 44.1200 -109.8831 250° West 334 384 24,000 300 Climbing Salt Lake Center
11:44PM 44.0867 -110.0050 249° West 347 399 24,000  Level Salt Lake Center
11:45PM 44.0503 -110.1469 250° West 349 402 24,000  Level Salt Lake Center
11:46PM 44.0178 -110.2661 249° West 346 398 24,000  Level Salt Lake Center
11:47PM 43.9858 -110.3850 250° West 343 395 24,000  Level Salt Lake Center
11:48PM 43.9486 -110.5236 250° West 342 394 24,000  Level Salt Lake Center
11:49PM 43.9156 -110.6436 249° West 346 398 24,000 -480 Level Salt Lake Center
11:50PM 43.8769 -110.7842 249° West 348 400 23,100 -1,320 Descending Salt Lake Center
11:51PM 43.8456 -110.8983 249° West 339 390 21,400 -1,740 Descending Salt Lake Center
11:52PM 43.8161 -111.0056 249° West 320 368 19,600 -1,920 Descending Salt Lake Center
11:53PM 43.7811 -111.1314 249° West 315 362 17,500 -2,040 Descending Salt Lake Center
11:54PM 43.7658 -111.2464 260° West 315 362 15,500 -1,740 Descending Salt Lake Center
11:55PM 43.7511 -111.3575 260° West 312 359 14,000 -840 Descending Salt Lake Center
11:56PM 43.7300 -111.4844 257° West 307 353 13,800 -1,140 Descending Salt Lake Center
11:57PM 43.7217 -111.5925 264° West 306 352 11,800 -1,620 Descending Salt Lake Center
11:58PM 43.7167 -111.7014 266° West 303 349 10,600 -1,380 Descending Salt Lake Center
11:59PM 43.7103 -111.8192 266° West 288 331 9,000 -960 Descending Salt Lake Center
12:00AM 43.6839 -111.8897 243° Southwest 264 304 8,700 -540 Descending Salt Lake Center
12:01AM 43.6408 -111.9369 218° Southwest 223 257 8,000 -1,140 Descending Salt Lake Center
12:02AM 43.5953 -111.9869 218° Southwest 197 227 6,500 -1,140 Descending Salt Lake Center
12:03AM 43.5600 -112.0281 220° Southwest 185 213 5,700 -840 Descending Salt Lake Center
12:04AM 43.5222 -112.0667 217° Southwest 163 188 4,800 -900 Descending Salt Lake Center
12:06AM 43.5000 -112.0667 216° Southwest  Level FlightAware Approximate
12:13AM 43.7226 -111.4313 216° Southwest  Level Estimated
12:14AM 43.7542 -111.3402 216° Southwest  Level Estimated
12:15AM 43.7856 -111.2489 216° Southwest  Level Estimated
12:16AM 43.8170 -111.1576 216° Southwest  Level Estimated
12:17AM 43.8483 -111.0661 216° Southwest  Level Estimated
12:18AM 43.8795 -110.9746 216° Southwest  Level Estimated
12:19AM 43.9107 -110.8830 216° Southwest  Level Estimated
12:20AM 43.9417 -110.7913 216° Southwest  Level Estimated
12:21AM 43.9728 -110.6994 216° Southwest  Level Estimated
12:22AM 44.0037 -110.6075 216° Southwest  Level Estimated
12:23AM 44.0345 -110.5155 216° Southwest  Level Estimated
12:24AM 44.0653 -110.4234 216° Southwest  Level Estimated
12:25AM 44.0960 -110.3312 216° Southwest  Level Estimated
12:26AM 44.1267 -110.2389 216° Southwest  Level Estimated
12:27AM 44.1572 -110.1465 216° Southwest  Level Estimated
12:28AM 44.1877 -110.0540 216° Southwest  Level Estimated
12:29AM 44.2181 -109.9614 216° Southwest  Level Estimated
12:30AM 44.2485 -109.8687 216° Southwest  Level Estimated
12:31AM 44.2787 -109.7759 216° Southwest  Level Estimated
12:32AM 44.3089 -109.6831 216° Southwest  Level Estimated
12:33AM 44.3390 -109.5901 216° Southwest  Level Estimated
12:34AM 44.3691 -109.4970 216° Southwest  Level Estimated
12:35AM 44.3990 -109.4039 216° Southwest  Level Estimated
12:36AM 44.4289 -109.3106 216° Southwest  Level Estimated